createdAt,value
2022-12-18T00:01:17.588Z,65.60
2022-12-18T00:03:45.340Z,69.60
2022-12-18T00:06:14.728Z,81.35
2022-12-18T00:08:42.794Z,66.80
2022-12-18T00:11:15.742Z,68.35
2022-12-18T00:13:42.980Z,67.93
2022-12-18T00:16:16.256Z,54.55
2022-12-18T00:18:43.586Z,72.57
2022-12-18T00:21:12.182Z,56.65
2022-12-18T00:23:42.200Z,62.95
2022-12-18T00:26:13.998Z,72.43
2022-12-18T00:28:40.752Z,67.30
2022-12-18T00:31:11.501Z,74.55
2022-12-18T00:33:39.516Z,66.10
2022-12-18T00:36:10.080Z,67.40
2022-12-18T00:38:37.663Z,68.65
2022-12-18T00:41:05.366Z,64.78
2022-12-18T00:43:32.154Z,48.85
2022-12-18T00:45:58.908Z,64.00
2022-12-18T00:48:25.705Z,70.75
2022-12-18T00:50:52.979Z,62.03
2022-12-18T00:53:19.826Z,58.33
2022-12-18T00:55:47.591Z,60.60
2022-12-18T00:58:16.609Z,75.13
2022-12-18T01:00:44.234Z,49.25
2022-12-18T01:03:14.607Z,60.20
2022-12-18T01:05:42.994Z,65.90
2022-12-18T01:08:10.137Z,55.25
2022-12-18T01:10:37.038Z,62.85
2022-12-18T01:13:03.901Z,61.60
2022-12-18T01:15:30.836Z,52.20
2022-12-18T01:17:57.856Z,63.50
2022-12-18T01:20:24.817Z,57.70
2022-12-18T01:22:51.597Z,51.28
2022-12-18T01:25:18.482Z,62.97
2022-12-18T01:27:45.244Z,48.67
2022-12-18T01:30:12.369Z,50.75
2022-12-18T01:32:39.179Z,51.55
2022-12-18T01:35:06.681Z,52.58
2022-12-18T01:37:33.526Z,60.22
2022-12-18T01:40:00.265Z,55.03
2022-12-18T01:42:27.016Z,50.17
2022-12-18T01:45:14.768Z,50.03
2022-12-18T01:47:46.249Z,54.58
2022-12-18T01:50:17.464Z,56.08
2022-12-18T01:52:45.635Z,54.28
2022-12-18T01:55:13.589Z,58.85
2022-12-18T01:57:40.999Z,53.92
2022-12-18T02:00:16.037Z,54.45
2022-12-18T02:02:44.625Z,61.08
2022-12-18T02:05:13.283Z,52.72
2022-12-18T02:07:43.513Z,45.33
2022-12-18T02:10:43.262Z,53.13
2022-12-18T02:13:13.431Z,60.55
2022-12-18T02:15:42.361Z,49.47
2022-12-18T02:18:16.231Z,53.55
2022-12-18T02:21:02.285Z,51.90
2022-12-18T02:23:45.113Z,50.45
2022-12-18T02:26:15.285Z,49.70
2022-12-18T02:29:09.145Z,49.70
2022-12-18T02:31:46.663Z,54.65
2022-12-18T02:34:14.244Z,54.85
2022-12-18T02:36:42.552Z,43.03
2022-12-18T02:39:11.928Z,54.30
2022-12-18T02:41:39.665Z,46.08
2022-12-18T02:44:14.878Z,45.47
2022-12-18T02:46:49.873Z,44.47
2022-12-18T02:49:38.036Z,53.13
2022-12-18T02:52:14.116Z,49.25
2022-12-18T02:54:45.703Z,45.55
2022-12-18T02:57:28.682Z,43.80
2022-12-18T03:00:11.167Z,47.80
2022-12-18T03:02:50.279Z,53.63
2022-12-18T03:05:32.498Z,39.00
2022-12-18T03:08:08.485Z,44.38
2022-12-18T03:10:43.470Z,48.60
2022-12-18T03:13:15.128Z,44.85
2022-12-18T03:15:52.678Z,41.42
2022-12-18T03:18:46.286Z,45.88
2022-12-18T03:23:46.052Z,42.40
2022-12-18T03:26:16.372Z,39.67
2022-12-18T03:28:50.670Z,41.22
2022-12-18T03:31:19.062Z,39.75
2022-12-18T03:33:54.288Z,40.95
2022-12-18T03:36:21.555Z,35.55
2022-12-18T03:38:48.605Z,37.38
2022-12-18T03:41:46.017Z,33.10
2022-12-18T03:44:33.646Z,39.00
2022-12-18T03:47:17.893Z,34.53
2022-12-18T03:50:12.434Z,44.17
2022-12-18T03:52:57.579Z,48.20
2022-12-18T03:55:26.678Z,38.00
2022-12-18T03:57:54.542Z,30.35
2022-12-18T04:00:21.960Z,34.97
2022-12-18T04:02:58.014Z,32.80
2022-12-18T04:05:26.782Z,43.80
2022-12-18T04:07:55.971Z,38.88
2022-12-18T04:10:22.798Z,39.45
2022-12-18T04:12:49.521Z,36.75
2022-12-18T04:15:16.750Z,35.28
2022-12-18T04:17:48.585Z,34.70
2022-12-18T04:20:15.839Z,37.17
2022-12-18T04:22:42.978Z,39.13
2022-12-18T04:25:10.684Z,36.85
2022-12-18T04:27:37.827Z,37.80
2022-12-18T04:30:05.337Z,34.65
2022-12-18T04:32:32.767Z,36.30
2022-12-18T04:34:59.922Z,32.67
2022-12-18T04:37:27.073Z,34.88
2022-12-18T04:39:54.181Z,33.08
2022-12-18T04:42:21.319Z,32.42
2022-12-18T04:44:48.473Z,47.03
2022-12-18T04:47:15.624Z,36.70
2022-12-18T04:49:42.771Z,44.35
2022-12-18T04:52:09.936Z,39.97
2022-12-18T04:54:37.048Z,37.95
2022-12-18T04:57:04.250Z,34.50
2022-12-18T04:59:31.443Z,38.63
2022-12-18T05:01:58.705Z,34.90
2022-12-18T05:04:25.969Z,34.83
2022-12-18T05:06:53.089Z,40.53
2022-12-18T05:09:20.220Z,31.98
2022-12-18T05:11:47.904Z,39.15
2022-12-18T05:14:15.051Z,26.38
2022-12-18T05:16:42.356Z,33.35
2022-12-18T05:19:09.584Z,29.88
2022-12-18T05:21:36.712Z,33.95
2022-12-18T05:24:04.187Z,29.52
2022-12-18T05:26:31.335Z,34.75
2022-12-18T05:28:58.509Z,26.23
2022-12-18T05:31:25.721Z,30.38
2022-12-18T05:33:53.017Z,33.17
2022-12-18T05:36:20.164Z,30.77
2022-12-18T05:38:47.341Z,25.98
2022-12-18T05:41:14.490Z,23.80
2022-12-18T05:43:42.628Z,25.73
2022-12-18T05:46:12.909Z,33.85
2022-12-18T05:48:40.178Z,27.98
2022-12-18T05:51:08.533Z,22.23
2022-12-18T05:53:36.040Z,31.23
2022-12-18T05:56:04.614Z,29.65
2022-12-18T05:58:32.210Z,27.02
2022-12-18T06:00:59.595Z,28.30
2022-12-18T06:03:38.206Z,27.17
2022-12-18T06:06:05.734Z,27.52
2022-12-18T06:08:32.951Z,26.92
2022-12-18T06:11:00.263Z,29.90
2022-12-18T06:13:27.450Z,29.52
2022-12-18T06:15:54.666Z,31.30
2022-12-18T06:18:22.094Z,37.35
2022-12-18T06:20:56.799Z,59.58
2022-12-18T06:23:24.083Z,50.13
2022-12-18T06:25:51.422Z,30.88
2022-12-18T06:28:18.772Z,34.88
2022-12-18T06:30:47.438Z,30.90
2022-12-18T06:33:14.208Z,33.08
2022-12-18T06:35:41.269Z,36.58
2022-12-18T06:38:08.323Z,34.55
2022-12-18T06:40:35.493Z,36.55
2022-12-18T06:43:02.676Z,40.50
2022-12-18T06:45:29.463Z,29.50
2022-12-18T06:47:56.605Z,31.27
2022-12-18T06:50:24.087Z,33.65
2022-12-18T06:52:50.829Z,28.13
2022-12-18T06:55:17.597Z,28.52
2022-12-18T06:57:44.404Z,37.05
2022-12-18T07:00:11.617Z,36.92
2022-12-18T07:02:38.470Z,34.03
2022-12-18T07:05:10.481Z,30.70
2022-12-18T07:07:38.273Z,38.53
2022-12-18T07:10:05.505Z,34.17
2022-12-18T07:12:32.275Z,41.90
2022-12-18T07:14:59.059Z,36.28
2022-12-18T07:17:25.869Z,41.75
2022-12-18T07:19:52.659Z,54.92
2022-12-18T07:22:19.412Z,44.88
2022-12-18T07:24:46.219Z,48.83
2022-12-18T07:27:12.981Z,40.95
2022-12-18T07:29:40.177Z,29.25
2022-12-18T07:32:08.106Z,34.40
2022-12-18T07:34:35.920Z,32.35
2022-12-18T07:37:03.949Z,43.17
2022-12-18T07:39:30.658Z,38.85
2022-12-18T07:42:16.011Z,37.70
2022-12-18T07:44:42.784Z,34.58
2022-12-18T07:47:12.196Z,28.85
2022-12-18T07:49:39.193Z,28.80
2022-12-18T07:52:05.937Z,33.45
2022-12-18T07:54:32.818Z,40.72
2022-12-18T07:57:00.511Z,32.97
2022-12-18T07:59:27.311Z,41.78
2022-12-18T08:01:54.131Z,40.28
2022-12-18T08:04:21.022Z,39.13
2022-12-18T08:06:48.485Z,39.42
2022-12-18T08:09:15.485Z,36.72
2022-12-18T08:11:42.319Z,37.55
2022-12-18T08:14:09.121Z,35.95
2022-12-18T08:16:36.122Z,37.08
2022-12-18T08:19:03.582Z,32.10
2022-12-18T08:21:32.141Z,41.65
2022-12-18T08:24:01.224Z,37.95
2022-12-18T08:26:31.233Z,35.80
2022-12-18T08:29:00.353Z,37.92
2022-12-18T08:31:28.611Z,41.72
2022-12-18T08:33:56.175Z,34.75
2022-12-18T08:36:24.845Z,42.00
2022-12-18T08:38:52.290Z,40.05
2022-12-18T08:41:19.498Z,42.47
2022-12-18T08:44:04.916Z,43.42
2022-12-18T08:46:49.610Z,32.90
2022-12-18T08:49:16.413Z,38.30
2022-12-18T08:51:43.415Z,39.20
2022-12-18T08:54:14.586Z,41.28
2022-12-18T08:56:44.172Z,33.50
2022-12-18T08:59:17.289Z,31.65
2022-12-18T09:01:47.318Z,29.63
2022-12-18T09:04:15.088Z,34.42
2022-12-18T09:06:42.205Z,28.73
2022-12-18T09:09:10.656Z,40.95
2022-12-18T09:11:37.911Z,38.75
2022-12-18T09:14:08.249Z,39.63
2022-12-18T09:16:36.017Z,41.92
2022-12-18T09:19:04.870Z,42.22
2022-12-18T09:21:36.115Z,41.42
2022-12-18T09:24:05.046Z,44.05
2022-12-18T09:26:35.774Z,42.53
2022-12-18T09:29:03.886Z,51.50
2022-12-18T09:31:30.890Z,53.35
2022-12-18T09:33:57.764Z,54.65
2022-12-18T09:36:24.761Z,49.47
2022-12-18T09:38:51.823Z,51.03
2022-12-18T09:41:43.043Z,47.40
2022-12-18T09:44:33.733Z,43.20
2022-12-18T09:47:32.807Z,40.22
2022-12-18T09:50:02.909Z,47.38
2022-12-18T09:52:58.855Z,39.15
2022-12-18T09:55:35.121Z,45.08
2022-12-18T09:58:23.961Z,43.85
2022-12-18T10:00:56.303Z,55.25
2022-12-18T10:03:23.347Z,56.60
2022-12-18T10:05:50.055Z,60.85
2022-12-18T10:08:44.171Z,53.17
2022-12-18T10:11:26.219Z,45.38
2022-12-18T10:14:11.702Z,44.75
2022-12-18T10:17:07.729Z,27.88
2022-12-18T10:19:50.453Z,33.10
2022-12-18T10:25:27.917Z,60.17
2022-12-18T10:27:59.407Z,57.58
2022-12-18T10:30:27.598Z,42.05
2022-12-18T10:32:55.251Z,49.03
2022-12-18T10:35:25.739Z,32.88
2022-12-18T10:38:07.542Z,35.17
2022-12-18T10:40:51.244Z,21.75
2022-12-18T10:43:24.065Z,15.85
2022-12-18T10:46:18.116Z,12.85
2022-12-18T10:48:47.954Z,7.85
2022-12-18T10:51:41.242Z,7.03
2022-12-18T10:54:14.190Z,8.85
2022-12-18T10:56:41.114Z,8.95
2022-12-18T10:59:15.348Z,9.35
2022-12-18T11:01:56.266Z,8.38
2022-12-18T11:04:32.409Z,6.90
2022-12-18T11:07:05.540Z,8.52
2022-12-18T11:09:34.395Z,11.02
2022-12-18T11:12:04.739Z,7.78
2022-12-18T11:14:36.167Z,8.50
2022-12-18T11:17:25.298Z,9.23
2022-12-18T11:19:57.681Z,11.32
2022-12-18T11:22:30.264Z,11.75
2022-12-18T11:27:57.851Z,11.45
2022-12-18T11:30:31.508Z,8.23
2022-12-18T11:33:10.568Z,8.38
2022-12-18T11:35:43.552Z,7.47
2022-12-18T11:38:18.422Z,10.25
2022-12-18T11:40:51.317Z,10.73
2022-12-18T11:43:41.790Z,10.23
2022-12-18T11:46:19.401Z,8.18
2022-12-18T11:48:55.217Z,8.38
2022-12-18T11:51:42.710Z,10.00
2022-12-18T11:54:15.238Z,9.35
2022-12-18T11:57:07.310Z,7.90
2022-12-18T11:59:53.438Z,8.88
2022-12-18T12:02:35.205Z,12.65
2022-12-18T12:05:46.687Z,10.82
2022-12-18T12:08:35.307Z,10.02
2022-12-18T12:11:23.588Z,10.55
2022-12-18T12:14:15.377Z,8.70
2022-12-18T12:16:45.181Z,10.80
2022-12-18T12:19:39.362Z,10.18
2022-12-18T12:22:16.019Z,10.02
2022-12-18T12:25:04.391Z,10.55
2022-12-18T12:27:48.220Z,7.85
2022-12-18T12:30:22.793Z,7.35
2022-12-18T12:33:19.972Z,9.10
2022-12-18T12:36:06.164Z,8.27
2022-12-18T12:38:51.921Z,12.80
2022-12-18T12:41:43.287Z,9.68
2022-12-18T12:44:20.116Z,11.18
2022-12-18T12:46:48.803Z,7.93
2022-12-18T12:49:22.159Z,10.73
2022-12-18T12:52:14.997Z,8.70
2022-12-18T12:54:43.327Z,12.32
2022-12-18T12:57:21.621Z,7.70
2022-12-18T13:00:01.599Z,10.02
2022-12-18T13:02:57.581Z,8.27
2022-12-18T13:05:44.445Z,11.20
2022-12-18T13:08:22.700Z,8.07
2022-12-18T13:11:11.114Z,10.70
2022-12-18T13:13:51.770Z,10.60
2022-12-18T13:16:22.251Z,8.70
2022-12-18T13:19:00.402Z,9.55
2022-12-18T13:21:31.477Z,8.60
2022-12-18T13:24:35.574Z,7.07
2022-12-18T13:27:40.899Z,9.32
2022-12-18T13:30:33.009Z,10.65
2022-12-18T13:33:14.900Z,10.57
2022-12-18T13:35:54.482Z,11.68
2022-12-18T13:38:37.217Z,8.13
2022-12-18T13:41:26.495Z,7.50
2022-12-18T13:44:11.130Z,11.75
2022-12-18T13:46:51.116Z,12.32
2022-12-18T13:49:36.585Z,8.10
2022-12-18T13:52:03.886Z,8.98
2022-12-18T13:54:41.256Z,10.95
2022-12-18T13:57:37.005Z,9.15
2022-12-18T14:00:22.588Z,8.88
2022-12-18T14:02:50.005Z,10.95
2022-12-18T14:05:45.677Z,10.90
2022-12-18T14:08:16.190Z,17.50
2022-12-18T14:10:49.077Z,14.80
2022-12-18T14:13:29.119Z,10.50
2022-12-18T14:15:59.006Z,10.45
2022-12-18T14:18:55.563Z,13.00
2022-12-18T14:21:30.482Z,10.20
2022-12-18T14:24:19.708Z,8.63
2022-12-18T14:26:48.325Z,7.50
2022-12-18T14:29:27.515Z,9.77
2022-12-18T14:32:17.697Z,10.18
2022-12-18T14:34:55.012Z,10.98
2022-12-18T14:37:24.605Z,10.80
2022-12-18T14:40:10.538Z,9.15
2022-12-18T14:42:38.670Z,10.57
2022-12-18T14:45:39.127Z,10.65
2022-12-18T14:48:42.188Z,10.93
2022-12-18T14:51:22.235Z,10.00
2022-12-18T14:54:01.407Z,9.77
2022-12-18T14:56:33.669Z,12.00
2022-12-18T14:59:16.989Z,9.63
2022-12-18T15:02:01.650Z,8.80
2022-12-18T15:04:36.306Z,8.05
2022-12-18T15:07:14.844Z,10.82
2022-12-18T15:09:44.348Z,11.07
2022-12-18T15:12:40.860Z,10.88
2022-12-18T15:15:45.628Z,10.98
2022-12-18T15:18:24.342Z,12.15
2022-12-18T15:20:52.495Z,14.10
2022-12-18T15:23:34.810Z,11.13
2022-12-18T15:26:05.595Z,8.85
2022-12-18T15:28:40.499Z,11.90
2022-12-18T15:31:10.773Z,10.43
2022-12-18T15:33:40.789Z,10.52
2022-12-18T15:36:15.785Z,12.32
2022-12-18T15:38:48.306Z,9.50
2022-12-18T15:41:21.420Z,10.35
2022-12-18T15:43:54.278Z,9.00
2022-12-18T15:46:27.714Z,6.68
2022-12-18T15:49:01.443Z,10.05
2022-12-18T15:51:33.441Z,11.00
2022-12-18T15:54:04.704Z,11.70
2022-12-18T15:56:50.895Z,8.30
2022-12-18T15:59:20.775Z,12.02
2022-12-18T16:01:50.400Z,11.07
2022-12-18T16:04:21.200Z,11.00
2022-12-18T16:07:13.895Z,10.55
2022-12-18T16:09:35.640Z,12.32
2022-12-18T16:12:02.554Z,13.57
2022-12-18T16:14:31.207Z,11.55
2022-12-18T16:17:00.528Z,12.52
2022-12-18T16:19:28.283Z,10.68
2022-12-18T16:21:57.026Z,9.18
2022-12-18T16:24:26.992Z,14.05
2022-12-18T16:26:55.218Z,9.98
2022-12-18T16:29:28.601Z,13.00
2022-12-18T16:32:00.495Z,18.30
2022-12-18T16:34:29.931Z,13.85
2022-12-18T16:37:05.504Z,12.07
2022-12-18T16:39:35.037Z,16.90
2022-12-18T16:42:20.502Z,14.68
2022-12-18T16:44:49.065Z,10.85
2022-12-18T16:47:16.105Z,13.55
2022-12-18T16:49:45.711Z,11.73
2022-12-18T16:52:12.533Z,14.05
2022-12-18T16:54:39.242Z,12.02
2022-12-18T16:57:06.019Z,12.38
2022-12-18T16:59:35.542Z,11.30
2022-12-18T17:02:06.329Z,10.73
2022-12-18T17:04:34.191Z,14.07
2022-12-18T17:07:00.939Z,14.65
2022-12-18T17:09:27.754Z,15.57
2022-12-18T17:11:54.872Z,12.70
2022-12-18T17:14:24.277Z,15.55
2022-12-18T17:17:19.170Z,14.45
2022-12-18T17:19:39.378Z,11.07
2022-12-18T17:22:07.981Z,13.60
2022-12-18T17:24:35.577Z,14.25
2022-12-18T17:27:03.725Z,11.40
2022-12-18T17:29:30.885Z,12.05
2022-12-18T17:31:59.269Z,13.02
2022-12-18T17:34:27.600Z,13.23
2022-12-18T17:36:54.339Z,13.90
2022-12-18T17:39:21.379Z,13.85
2022-12-18T17:41:48.749Z,11.75
2022-12-18T17:44:16.620Z,13.30
2022-12-18T17:46:43.895Z,14.55
2022-12-18T17:49:11.128Z,17.02
2022-12-18T17:51:38.165Z,14.60
2022-12-18T17:54:05.425Z,16.02
2022-12-18T17:56:32.815Z,12.10
2022-12-18T17:58:59.807Z,16.48
2022-12-18T18:01:27.547Z,13.88
2022-12-18T18:03:57.823Z,14.52
2022-12-18T18:06:24.701Z,14.95
2022-12-18T18:08:51.996Z,15.43
2022-12-18T18:11:39.486Z,17.92
2022-12-18T18:14:12.065Z,15.15
2022-12-18T18:16:41.830Z,13.02
2022-12-18T18:19:11.666Z,14.20
2022-12-18T18:21:41.097Z,14.52
2022-12-18T18:24:09.121Z,15.95
2022-12-18T18:26:36.791Z,13.82
2022-12-18T18:29:05.764Z,16.15
2022-12-18T18:31:35.312Z,13.95
2022-12-18T18:34:08.522Z,14.10
2022-12-18T18:36:38.296Z,15.30
2022-12-18T18:39:05.198Z,15.48
2022-12-18T18:41:32.152Z,13.07
2022-12-18T18:43:59.044Z,15.93
2022-12-18T18:46:26.297Z,15.65
2022-12-18T18:48:56.561Z,17.00
2022-12-18T18:51:23.925Z,15.43
2022-12-18T18:53:52.800Z,17.13
2022-12-18T18:59:08.557Z,15.80
2022-12-18T19:01:35.553Z,16.10
2022-12-18T19:04:02.439Z,15.23
2022-12-18T19:06:29.895Z,17.42
2022-12-18T19:08:58.187Z,15.30
2022-12-18T19:11:44.534Z,20.88
2022-12-18T19:14:15.773Z,18.00
2022-12-18T19:16:43.470Z,19.83
2022-12-18T19:19:10.736Z,17.45
2022-12-18T19:21:38.313Z,17.80
2022-12-18T19:24:05.690Z,21.92
2022-12-18T19:26:32.564Z,23.38
2022-12-18T19:29:04.250Z,16.55
2022-12-18T19:31:35.647Z,17.23
2022-12-18T19:34:04.921Z,20.67
2022-12-18T19:36:32.959Z,20.27
2022-12-18T19:39:01.509Z,20.75
2022-12-18T19:41:32.055Z,17.90
2022-12-18T19:44:00.106Z,18.27
2022-12-18T19:46:29.066Z,22.70
2022-12-18T19:48:55.893Z,21.02
2022-12-18T19:51:27.858Z,19.20
2022-12-18T19:53:58.930Z,18.05
2022-12-18T19:56:29.083Z,24.85
2022-12-18T19:58:55.926Z,23.77
2022-12-18T20:01:24.524Z,21.13
2022-12-18T20:03:54.490Z,21.27
2022-12-18T20:06:45.217Z,19.40
2022-12-18T20:09:12.159Z,17.00
2022-12-18T20:11:40.242Z,20.02
2022-12-18T20:14:12.845Z,22.60
2022-12-18T20:16:40.352Z,17.77
2022-12-18T20:19:07.637Z,21.80
2022-12-18T20:21:37.456Z,22.33
2022-12-18T20:24:08.384Z,21.27
2022-12-18T20:26:35.407Z,20.98
2022-12-18T20:29:02.243Z,22.33
2022-12-18T20:31:29.286Z,22.90
2022-12-18T20:33:59.584Z,25.45
2022-12-18T20:36:28.111Z,24.08
2022-12-18T20:38:58.151Z,24.45
2022-12-18T20:41:35.050Z,22.33
2022-12-18T20:44:21.415Z,24.25
2022-12-18T20:46:52.264Z,22.33
2022-12-18T20:49:19.127Z,21.75
2022-12-18T20:51:46.270Z,21.05
2022-12-18T20:54:13.016Z,23.00
2022-12-18T20:56:39.773Z,19.40
2022-12-18T20:59:07.300Z,21.15
2022-12-18T21:01:34.125Z,24.52
2022-12-18T21:04:02.192Z,22.85
2022-12-18T21:06:28.961Z,24.30
2022-12-18T21:08:55.737Z,23.73
2022-12-18T21:11:40.867Z,24.00
2022-12-18T21:14:14.311Z,22.08
2022-12-18T21:16:43.756Z,23.77
2022-12-18T21:19:12.949Z,20.75
2022-12-18T21:21:40.146Z,19.30
2022-12-18T21:24:07.634Z,24.65
2022-12-18T21:26:34.599Z,21.02
2022-12-18T21:29:06.051Z,25.48
2022-12-18T21:31:36.158Z,29.52
2022-12-18T21:34:04.448Z,28.10
2022-12-18T21:36:32.995Z,24.77
2022-12-18T21:39:00.358Z,22.60
2022-12-18T21:41:46.517Z,26.75
2022-12-18T21:44:18.439Z,25.05
2022-12-18T21:46:53.156Z,27.20
2022-12-18T21:49:24.336Z,26.83
2022-12-18T21:51:53.822Z,32.28
2022-12-18T21:54:21.340Z,23.30
2022-12-18T21:56:56.640Z,25.05
2022-12-18T21:59:25.940Z,20.80
2022-12-18T22:01:54.636Z,26.40
2022-12-18T22:04:22.227Z,26.73
2022-12-18T22:06:50.095Z,25.15
2022-12-18T22:09:19.218Z,29.33
2022-12-18T22:11:46.639Z,21.45
2022-12-18T22:14:14.786Z,24.92
2022-12-18T22:16:42.487Z,22.05
2022-12-18T22:19:11.491Z,26.70
2022-12-18T22:21:41.204Z,24.40
2022-12-18T22:24:12.851Z,24.08
2022-12-18T22:26:40.445Z,33.25
2022-12-18T22:29:28.844Z,25.60
2022-12-18T22:31:57.077Z,29.33
2022-12-18T22:34:23.884Z,29.75
2022-12-18T22:36:50.780Z,26.50
2022-12-18T22:39:28.692Z,24.55
2022-12-18T22:41:56.941Z,27.52
2022-12-18T22:44:23.810Z,29.45
2022-12-18T22:47:06.777Z,31.55
2022-12-18T22:52:04.030Z,25.35
2022-12-18T22:54:31.037Z,33.25
2022-12-18T22:56:57.882Z,30.60
2022-12-18T22:59:25.031Z,24.50
2022-12-18T23:01:58.813Z,29.38
2022-12-18T23:04:35.968Z,28.60
2022-12-18T23:07:04.632Z,23.88
2022-12-18T23:09:31.543Z,23.33
2022-12-18T23:11:58.263Z,25.52
2022-12-18T23:14:25.080Z,26.13
2022-12-18T23:16:53.105Z,28.58
2022-12-18T23:19:20.511Z,31.02
2022-12-18T23:21:47.334Z,29.85
2022-12-18T23:24:14.561Z,26.83
2022-12-18T23:26:41.613Z,31.52
2022-12-18T23:29:08.812Z,29.52
2022-12-18T23:31:37.810Z,30.00
2022-12-18T23:34:06.021Z,30.50
2022-12-18T23:36:40.287Z,28.30
2022-12-18T23:39:15.468Z,32.50
2022-12-18T23:41:56.248Z,29.33
2022-12-18T23:44:23.115Z,29.48
2022-12-18T23:46:49.974Z,27.77
2022-12-18T23:49:16.753Z,32.45
2022-12-18T23:51:43.671Z,28.23
2022-12-18T23:54:10.465Z,33.90
2022-12-18T23:56:37.602Z,28.70
2022-12-18T23:59:04.437Z,31.35
